createdAt,value
2018-05-29T00:00:09.946Z,5.70
2018-05-29T00:01:10.122Z,5.30
2018-05-29T00:02:10.291Z,7.90
2018-05-29T00:03:10.470Z,5.20
2018-05-29T00:04:10.645Z,5.90
2018-05-29T00:05:10.822Z,6.80
2018-05-29T00:06:10.994Z,6.00
2018-05-29T00:07:11.176Z,5.60
2018-05-29T00:08:11.353Z,5.20
2018-05-29T00:09:11.545Z,5.90
2018-05-29T00:10:11.737Z,6.30
2018-05-29T00:11:11.911Z,5.50
2018-05-29T00:12:12.083Z,5.70
2018-05-29T00:13:12.256Z,6.10
2018-05-29T00:14:12.430Z,7.50
2018-05-29T00:15:12.599Z,7.20
2018-05-29T00:16:12.777Z,6.50
2018-05-29T00:17:12.958Z,6.40
2018-05-29T00:18:13.126Z,8.00
2018-05-29T00:19:13.304Z,8.90
2018-05-29T00:20:13.478Z,5.90
2018-05-29T00:21:13.654Z,11.10
2018-05-29T00:22:13.856Z,6.10
2018-05-29T00:23:14.039Z,5.70
2018-05-29T00:24:14.215Z,7.70
2018-05-29T00:25:14.408Z,5.60
2018-05-29T00:26:14.596Z,6.70
2018-05-29T00:27:14.752Z,5.70
2018-05-29T00:28:14.916Z,6.70
2018-05-29T00:29:15.088Z,6.10
2018-05-29T00:30:15.259Z,5.90
2018-05-29T00:31:15.446Z,7.60
2018-05-29T00:32:15.604Z,7.20
2018-05-29T00:33:15.769Z,5.60
2018-05-29T00:34:15.936Z,5.70
2018-05-29T00:35:16.109Z,6.00
2018-05-29T00:36:16.281Z,6.10
2018-05-29T00:37:16.464Z,6.80
2018-05-29T00:38:16.634Z,5.30
2018-05-29T00:39:16.804Z,8.00
2018-05-29T00:40:16.971Z,6.30
2018-05-29T00:41:17.142Z,5.80
2018-05-29T00:42:17.329Z,5.50
2018-05-29T00:43:17.491Z,7.40
2018-05-29T00:44:17.663Z,7.40
2018-05-29T00:45:17.832Z,8.00
2018-05-29T00:46:18.007Z,5.60
2018-05-29T00:47:18.193Z,5.30
2018-05-29T00:48:18.362Z,5.50
2018-05-29T00:49:18.532Z,8.60
2018-05-29T00:50:18.708Z,5.50
2018-05-29T00:51:18.878Z,6.70
2018-05-29T00:52:19.049Z,6.80
2018-05-29T00:53:19.225Z,6.40
2018-05-29T00:54:19.393Z,6.70
2018-05-29T00:55:19.564Z,5.30
2018-05-29T00:56:19.731Z,5.20
2018-05-29T00:57:20.131Z,5.40
2018-05-29T00:58:20.441Z,6.40
2018-05-29T00:59:20.616Z,7.70
2018-05-29T01:00:20.816Z,6.10
2018-05-29T01:01:20.908Z,6.90
2018-05-29T01:02:21.040Z,5.10
2018-05-29T01:03:21.247Z,7.50
2018-05-29T01:04:21.393Z,7.70
2018-05-29T01:05:21.579Z,7.00
2018-05-29T01:06:21.327Z,5.50
2018-05-29T01:07:21.506Z,7.40
2018-05-29T01:08:21.693Z,6.80
2018-05-29T01:09:21.865Z,6.60
2018-05-29T01:10:22.033Z,6.20
2018-05-29T01:11:22.209Z,6.90
2018-05-29T01:12:22.383Z,6.50
2018-05-29T01:13:22.554Z,5.80
2018-05-29T01:14:22.723Z,8.40
2018-05-29T01:15:22.892Z,7.60
2018-05-29T01:16:23.068Z,6.60
2018-05-29T01:17:23.244Z,6.10
2018-05-29T01:18:23.418Z,6.30
2018-05-29T01:19:23.582Z,5.80
2018-05-29T01:20:23.763Z,7.00
2018-05-29T01:21:23.940Z,6.90
2018-05-29T01:22:24.109Z,7.10
2018-05-29T01:23:24.277Z,6.50
2018-05-29T01:24:24.450Z,6.50
2018-05-29T01:25:24.625Z,7.70
2018-05-29T01:26:24.799Z,6.00
2018-05-29T01:27:24.972Z,6.20
2018-05-29T01:28:25.142Z,6.30
2018-05-29T01:29:25.314Z,6.50
2018-05-29T01:30:25.491Z,6.40
2018-05-29T01:31:25.661Z,6.00
2018-05-29T01:32:25.830Z,7.00
2018-05-29T01:33:25.999Z,6.10
2018-05-29T01:34:26.176Z,6.80
2018-05-29T01:35:26.347Z,6.60
2018-05-29T01:36:26.519Z,6.20
2018-05-29T01:37:26.694Z,6.70
2018-05-29T01:38:26.861Z,7.50
2018-05-29T01:39:27.040Z,6.50
2018-05-29T01:40:27.207Z,7.00
2018-05-29T01:41:27.394Z,7.70
2018-05-29T01:42:27.558Z,7.90
2018-05-29T01:43:27.730Z,6.50
2018-05-29T01:44:27.903Z,6.80
2018-05-29T01:45:28.069Z,7.60
2018-05-29T01:46:28.240Z,7.80
2018-05-29T01:47:28.412Z,10.60
2018-05-29T01:48:28.586Z,7.40
2018-05-29T01:49:28.753Z,6.90
2018-05-29T01:50:28.927Z,7.50
2018-05-29T01:51:29.095Z,7.70
2018-05-29T01:52:29.271Z,8.00
2018-05-29T01:53:29.449Z,10.00
2018-05-29T01:54:29.624Z,7.70
2018-05-29T01:55:29.801Z,8.90
2018-05-29T01:56:29.978Z,8.20
2018-05-29T01:57:30.146Z,8.00
2018-05-29T01:58:30.319Z,7.90
2018-05-29T01:59:30.492Z,8.50
2018-05-29T02:00:30.660Z,9.00
2018-05-29T02:01:30.836Z,8.90
2018-05-29T02:02:31.005Z,8.60
2018-05-29T02:03:31.182Z,8.50
2018-05-29T02:04:31.365Z,8.20
2018-05-29T02:05:31.535Z,10.00
2018-05-29T02:06:31.712Z,7.50
2018-05-29T02:07:31.881Z,7.40
2018-05-29T02:08:32.055Z,7.30
2018-05-29T02:09:32.222Z,7.70
2018-05-29T02:10:32.396Z,7.50
2018-05-29T02:11:33.300Z,8.20
2018-05-29T02:12:32.728Z,8.60
2018-05-29T02:13:32.904Z,8.30
2018-05-29T02:14:33.071Z,8.00
2018-05-29T02:15:33.243Z,8.10
2018-05-29T02:16:33.411Z,7.30
2018-05-29T02:17:33.590Z,9.00
2018-05-29T02:18:33.752Z,8.80
2018-05-29T02:19:33.930Z,8.10
2018-05-29T02:20:34.100Z,7.90
2018-05-29T02:21:34.271Z,8.30
2018-05-29T02:22:34.444Z,8.20
2018-05-29T02:23:34.621Z,8.30
2018-05-29T02:24:34.790Z,9.10
2018-05-29T02:25:34.965Z,7.80
2018-05-29T02:26:35.133Z,8.20
2018-05-29T02:27:35.296Z,9.70
2018-05-29T02:28:35.473Z,9.00
2018-05-29T02:29:35.644Z,12.90
2018-05-29T02:30:35.811Z,8.90
2018-05-29T02:31:35.989Z,9.20
2018-05-29T02:32:36.161Z,12.50
2018-05-29T02:33:36.333Z,9.00
2018-05-29T02:34:36.509Z,8.20
2018-05-29T02:35:36.692Z,9.50
2018-05-29T02:36:36.854Z,10.50
2018-05-29T02:37:37.025Z,9.40
2018-05-29T02:38:37.194Z,8.40
2018-05-29T02:39:37.365Z,9.20
2018-05-29T02:40:37.540Z,8.00
2018-05-29T02:41:37.712Z,8.80
2018-05-29T02:42:37.880Z,8.50
2018-05-29T02:43:38.054Z,7.90
2018-05-29T02:44:38.222Z,8.00
2018-05-29T02:45:38.392Z,8.10
2018-05-29T02:46:38.570Z,7.80
2018-05-29T02:47:38.741Z,9.50
2018-05-29T02:48:38.914Z,8.50
2018-05-29T02:49:39.090Z,8.30
2018-05-29T02:50:39.265Z,8.40
2018-05-29T02:51:39.432Z,8.30
2018-05-29T02:52:39.624Z,8.00
2018-05-29T02:53:39.777Z,8.00
2018-05-29T02:54:39.958Z,8.10
2018-05-29T02:55:40.124Z,7.70
2018-05-29T02:56:40.291Z,8.20
2018-05-29T02:57:40.463Z,8.40
2018-05-29T02:58:40.638Z,8.10
2018-05-29T02:59:40.815Z,8.60
2018-05-29T03:00:40.993Z,7.90
2018-05-29T03:01:41.159Z,8.60
2018-05-29T03:02:41.334Z,8.40
2018-05-29T03:03:41.498Z,8.50
2018-05-29T03:04:41.678Z,8.20
2018-05-29T03:05:41.850Z,10.70
2018-05-29T03:06:42.018Z,8.40
2018-05-29T03:07:42.189Z,7.90
2018-05-29T03:08:42.357Z,8.80
2018-05-29T03:09:42.531Z,8.20
2018-05-29T03:10:42.711Z,8.50
2018-05-29T03:11:42.884Z,9.10
2018-05-29T03:12:43.062Z,8.20
2018-05-29T03:13:43.230Z,8.10
2018-05-29T03:14:43.399Z,8.50
2018-05-29T03:15:43.572Z,8.60
2018-05-29T03:16:43.744Z,8.90
2018-05-29T03:17:43.915Z,10.30
2018-05-29T03:18:44.095Z,8.80
2018-05-29T03:19:44.261Z,8.40
2018-05-29T03:20:44.429Z,9.80
2018-05-29T03:21:44.604Z,8.70
2018-05-29T03:22:44.776Z,8.60
2018-05-29T03:23:44.943Z,8.80
2018-05-29T03:24:45.118Z,8.40
2018-05-29T03:25:45.290Z,8.00
2018-05-29T03:26:45.459Z,8.00
2018-05-29T03:27:45.622Z,8.90
2018-05-29T03:28:45.788Z,8.20
2018-05-29T03:29:45.960Z,7.80
2018-05-29T03:30:46.128Z,8.60
2018-05-29T03:31:46.303Z,8.10
2018-05-29T03:32:46.480Z,7.60
2018-05-29T03:33:46.653Z,7.40
2018-05-29T03:34:46.828Z,7.90
2018-05-29T03:35:47.001Z,8.30
2018-05-29T03:36:47.171Z,8.00
2018-05-29T03:37:47.337Z,7.90
2018-05-29T03:38:47.513Z,8.70
2018-05-29T03:39:47.682Z,8.10
2018-05-29T03:40:47.854Z,10.50
2018-05-29T03:41:48.025Z,8.60
2018-05-29T03:42:48.191Z,8.90
2018-05-29T03:43:48.357Z,9.10
2018-05-29T03:44:48.526Z,8.70
2018-05-29T03:45:48.697Z,10.70
2018-05-29T03:46:48.875Z,9.40
2018-05-29T03:47:49.040Z,10.60
2018-05-29T03:48:49.210Z,9.30
2018-05-29T03:49:49.386Z,9.40
2018-05-29T03:50:49.556Z,9.10
2018-05-29T03:51:49.725Z,10.10
2018-05-29T03:52:49.893Z,9.50
2018-05-29T03:53:50.064Z,10.10
2018-05-29T03:54:50.238Z,12.90
2018-05-29T03:55:50.406Z,10.80
2018-05-29T03:56:50.577Z,10.00
2018-05-29T03:57:50.745Z,10.30
2018-05-29T03:58:50.916Z,10.00
2018-05-29T03:59:51.090Z,10.40
2018-05-29T04:00:51.259Z,10.50
2018-05-29T04:01:51.433Z,10.10
2018-05-29T04:02:51.603Z,10.00
2018-05-29T04:03:51.773Z,13.90
2018-05-29T04:04:51.944Z,9.40
2018-05-29T04:05:52.124Z,9.30
2018-05-29T04:06:52.305Z,10.60
2018-05-29T04:07:52.461Z,9.30
2018-05-29T04:08:52.636Z,9.30
2018-05-29T04:09:52.832Z,10.30
2018-05-29T04:10:52.995Z,9.80
2018-05-29T04:11:53.167Z,9.60
2018-05-29T04:12:53.338Z,8.80
2018-05-29T04:13:53.508Z,9.90
2018-05-29T04:14:53.673Z,9.40
2018-05-29T04:15:53.888Z,9.40
2018-05-29T04:16:54.020Z,9.20
2018-05-29T04:17:54.191Z,9.20
2018-05-29T04:18:54.358Z,8.40
2018-05-29T04:19:54.531Z,11.30
2018-05-29T04:20:54.700Z,8.50
2018-05-29T04:21:54.866Z,8.90
2018-05-29T04:22:55.039Z,8.70
2018-05-29T04:23:55.228Z,8.60
2018-05-29T04:24:55.388Z,9.10
2018-05-29T04:25:55.563Z,8.80
2018-05-29T04:26:55.736Z,10.30
2018-05-29T04:27:55.902Z,10.40
2018-05-29T04:28:56.079Z,8.50
2018-05-29T04:29:56.250Z,8.10
2018-05-29T04:30:56.423Z,8.00
2018-05-29T04:31:56.597Z,9.70
2018-05-29T04:32:56.771Z,8.60
2018-05-29T04:33:56.931Z,9.10
2018-05-29T04:34:57.100Z,8.70
2018-05-29T04:35:57.273Z,9.00
2018-05-29T04:36:57.442Z,8.90
2018-05-29T04:37:57.616Z,8.30
2018-05-29T04:38:57.791Z,8.70
2018-05-29T04:39:57.957Z,8.90
2018-05-29T04:40:58.126Z,9.90
2018-05-29T04:41:58.301Z,10.00
2018-05-29T04:42:58.474Z,10.40
2018-05-29T04:43:58.649Z,9.70
2018-05-29T04:44:58.825Z,10.50
2018-05-29T04:45:58.998Z,10.20
2018-05-29T04:46:59.222Z,9.30
2018-05-29T04:47:59.342Z,9.00
2018-05-29T04:48:59.521Z,9.10
2018-05-29T04:49:59.697Z,8.00
2018-05-29T04:50:59.875Z,9.90
2018-05-29T04:52:00.051Z,9.90
2018-05-29T04:53:00.230Z,11.00
2018-05-29T04:54:00.387Z,8.70
2018-05-29T04:55:00.562Z,8.60
2018-05-29T04:56:00.739Z,10.00
2018-05-29T04:57:00.913Z,10.40
2018-05-29T04:58:01.081Z,10.10
2018-05-29T04:59:01.249Z,10.80
2018-05-29T05:00:01.422Z,12.40
2018-05-29T05:01:01.599Z,10.10
2018-05-29T05:02:01.771Z,9.60
2018-05-29T05:03:01.937Z,9.90
2018-05-29T05:04:02.110Z,10.30
2018-05-29T05:05:02.285Z,9.80
2018-05-29T05:06:02.463Z,9.80
2018-05-29T05:07:02.632Z,10.30
2018-05-29T05:08:02.808Z,9.70
2018-05-29T05:09:03.034Z,10.50
2018-05-29T05:10:03.175Z,11.60
2018-05-29T05:11:03.332Z,11.50
2018-05-29T05:12:03.502Z,9.90
2018-05-29T05:13:03.680Z,10.40
2018-05-29T05:14:03.849Z,9.30
2018-05-29T05:15:04.035Z,10.60
2018-05-29T05:16:04.205Z,9.90
2018-05-29T05:17:04.385Z,10.00
2018-05-29T05:18:04.561Z,10.40
2018-05-29T05:19:04.741Z,10.30
2018-05-29T05:20:04.908Z,10.70
2018-05-29T05:21:05.097Z,9.90
2018-05-29T05:22:05.256Z,10.40
2018-05-29T05:23:05.425Z,12.20
2018-05-29T05:24:05.613Z,9.80
2018-05-29T05:25:05.790Z,10.20
2018-05-29T05:26:05.956Z,10.40
2018-05-29T05:27:06.129Z,9.90
2018-05-29T05:28:06.302Z,9.70
2018-05-29T05:29:06.477Z,9.30
2018-05-29T05:30:06.658Z,9.00
2018-05-29T05:31:06.824Z,9.30
2018-05-29T05:32:06.998Z,8.70
2018-05-29T05:33:07.167Z,8.60
2018-05-29T05:34:07.344Z,7.60
2018-05-29T05:35:07.528Z,9.60
2018-05-29T05:36:07.688Z,7.90
2018-05-29T05:37:07.859Z,8.70
2018-05-29T05:38:08.034Z,8.00
2018-05-29T05:39:08.208Z,7.70
2018-05-29T05:40:08.379Z,10.30
2018-05-29T05:41:08.553Z,7.80
2018-05-29T05:42:08.724Z,7.40
2018-05-29T05:43:08.900Z,8.60
2018-05-29T05:44:09.072Z,8.00
2018-05-29T05:45:09.253Z,8.80
2018-05-29T05:46:09.480Z,10.40
2018-05-29T05:47:09.603Z,9.70
2018-05-29T05:48:09.778Z,10.20
2018-05-29T05:49:09.943Z,7.80
2018-05-29T05:50:10.122Z,8.90
2018-05-29T05:51:10.295Z,8.30
2018-05-29T05:52:10.466Z,9.40
2018-05-29T05:53:10.637Z,8.80
2018-05-29T05:54:10.807Z,9.70
2018-05-29T05:55:10.980Z,8.10
2018-05-29T05:56:11.158Z,8.40
2018-05-29T05:57:11.328Z,8.70
2018-05-29T05:58:11.503Z,7.50
2018-05-29T05:59:11.681Z,9.30
2018-05-29T06:00:11.865Z,8.20
2018-05-29T06:01:12.028Z,8.20
2018-05-29T06:02:12.199Z,8.70
2018-05-29T06:03:12.382Z,8.30
2018-05-29T06:04:12.552Z,9.00
2018-05-29T06:05:12.771Z,10.00
2018-05-29T06:06:12.908Z,14.80
2018-05-29T06:07:13.082Z,12.60
2018-05-29T06:08:13.258Z,9.30
2018-05-29T06:09:13.430Z,9.20
2018-05-29T06:10:13.604Z,8.90
2018-05-29T06:11:13.784Z,11.50
2018-05-29T06:12:13.956Z,8.50
2018-05-29T06:13:14.129Z,8.70
2018-05-29T06:14:14.313Z,9.60
2018-05-29T06:15:14.697Z,9.20
2018-05-29T06:16:14.638Z,9.20
2018-05-29T06:17:14.812Z,10.40
2018-05-29T06:18:14.980Z,8.70
2018-05-29T06:19:15.160Z,9.40
2018-05-29T06:20:15.338Z,8.60
2018-05-29T06:21:15.514Z,8.70
2018-05-29T06:22:15.684Z,9.10
2018-05-29T06:23:15.866Z,9.20
2018-05-29T06:24:16.043Z,9.10
2018-05-29T06:25:16.209Z,9.50
2018-05-29T06:26:16.383Z,9.70
2018-05-29T06:27:16.556Z,9.60
2018-05-29T06:28:16.735Z,8.60
2018-05-29T06:29:16.917Z,8.70
2018-05-29T06:30:17.090Z,9.10
2018-05-29T06:31:17.266Z,10.50
2018-05-29T06:32:17.445Z,8.70
2018-05-29T06:33:17.623Z,8.30
2018-05-29T06:34:17.796Z,9.70
2018-05-29T06:35:17.976Z,8.00
2018-05-29T06:36:18.149Z,8.80
2018-05-29T06:37:18.329Z,10.40
2018-05-29T06:38:18.511Z,8.00
2018-05-29T06:39:18.672Z,8.60
2018-05-29T06:40:18.854Z,8.00
2018-05-29T06:41:19.030Z,9.80
2018-05-29T06:42:19.212Z,10.40
2018-05-29T06:43:19.379Z,8.20
2018-05-29T06:44:19.558Z,8.70
2018-05-29T06:45:19.732Z,7.70
2018-05-29T06:46:19.907Z,8.40
2018-05-29T06:47:20.080Z,8.20
2018-05-29T06:48:20.257Z,8.40
2018-05-29T06:49:20.435Z,8.50
2018-05-29T06:50:20.610Z,11.80
2018-05-29T06:51:20.788Z,8.30
2018-05-29T06:52:20.963Z,8.90
2018-05-29T06:53:21.146Z,8.40
2018-05-29T06:54:21.311Z,9.00
2018-05-29T06:55:21.485Z,9.80
2018-05-29T06:56:21.660Z,8.50
2018-05-29T06:57:21.839Z,9.00
2018-05-29T06:58:22.010Z,11.10
2018-05-29T06:59:22.185Z,9.00
2018-05-29T07:00:22.369Z,11.80
2018-05-29T07:01:22.551Z,8.50
2018-05-29T07:02:22.731Z,7.70
2018-05-29T07:03:22.907Z,10.70
2018-05-29T07:04:23.087Z,8.80
2018-05-29T07:05:23.264Z,9.00
2018-05-29T07:06:23.437Z,8.60
2018-05-29T07:07:23.617Z,7.80
2018-05-29T07:08:23.787Z,9.70
2018-05-29T07:09:23.959Z,8.10
2018-05-29T07:10:24.137Z,8.80
2018-05-29T07:11:24.311Z,10.50
2018-05-29T07:12:24.488Z,9.50
2018-05-29T07:13:24.666Z,8.00
2018-05-29T07:14:24.840Z,8.20
2018-05-29T07:15:25.004Z,10.10
2018-05-29T07:16:25.179Z,8.90
2018-05-29T07:17:25.363Z,9.00
2018-05-29T07:18:25.523Z,8.70
2018-05-29T07:19:25.698Z,8.40
2018-05-29T07:20:25.883Z,9.00
2018-05-29T07:21:26.054Z,8.60
2018-05-29T07:22:26.232Z,8.80
2018-05-29T07:23:26.409Z,8.40
2018-05-29T07:24:26.593Z,8.60
2018-05-29T07:25:26.756Z,10.30
2018-05-29T07:26:26.928Z,8.80
2018-05-29T07:27:27.102Z,8.90
2018-05-29T07:28:27.278Z,9.20
2018-05-29T07:29:27.451Z,9.00
2018-05-29T07:30:27.636Z,13.70
2018-05-29T07:31:27.808Z,8.80
2018-05-29T07:32:27.988Z,8.50
2018-05-29T07:33:28.161Z,10.10
2018-05-29T07:34:28.345Z,9.10
2018-05-29T07:35:28.522Z,9.20
2018-05-29T07:36:28.698Z,11.00
2018-05-29T07:37:28.877Z,10.10
2018-05-29T07:38:29.047Z,9.50
2018-05-29T07:39:29.240Z,9.30
2018-05-29T07:40:29.405Z,10.60
2018-05-29T07:41:29.582Z,9.80
2018-05-29T07:42:29.758Z,11.80
2018-05-29T07:43:29.934Z,9.80
2018-05-29T07:44:30.110Z,9.50
2018-05-29T07:45:30.291Z,8.80
2018-05-29T07:46:30.466Z,10.30
2018-05-29T07:47:30.642Z,9.10
2018-05-29T07:48:30.821Z,9.80
2018-05-29T07:49:31.007Z,9.80
2018-05-29T07:50:31.183Z,9.20
2018-05-29T07:51:31.355Z,9.30
2018-05-29T07:52:31.538Z,9.60
2018-05-29T07:53:31.687Z,9.50
2018-05-29T07:54:31.871Z,11.20
2018-05-29T07:55:32.048Z,9.20
2018-05-29T07:56:32.224Z,9.30
2018-05-29T07:57:32.400Z,9.30
2018-05-29T07:58:32.581Z,9.60
2018-05-29T07:59:32.760Z,9.30
2018-05-29T08:00:32.935Z,12.70
2018-05-29T08:01:33.105Z,10.10
2018-05-29T08:02:33.308Z,9.80
2018-05-29T08:03:33.488Z,13.30
2018-05-29T08:04:33.673Z,9.80
2018-05-29T08:05:33.848Z,11.60
2018-05-29T08:06:34.038Z,10.30
2018-05-29T08:07:34.202Z,9.60
2018-05-29T08:08:34.374Z,9.40
2018-05-29T08:09:34.548Z,11.80
2018-05-29T08:10:34.736Z,10.10
2018-05-29T08:11:34.910Z,10.10
2018-05-29T08:12:35.101Z,12.00
2018-05-29T08:13:35.292Z,9.70
2018-05-29T08:14:35.455Z,10.30
2018-05-29T08:15:35.639Z,9.80
2018-05-29T08:16:35.819Z,10.10
2018-05-29T08:17:35.997Z,9.50
2018-05-29T08:18:36.194Z,9.30
2018-05-29T08:19:36.354Z,9.40
2018-05-29T08:20:36.527Z,10.10
2018-05-29T08:21:36.705Z,9.60
2018-05-29T08:22:36.881Z,10.80
2018-05-29T08:23:37.059Z,11.10
2018-05-29T08:24:37.243Z,9.80
2018-05-29T08:25:37.412Z,9.70
2018-05-29T08:26:37.589Z,9.80
2018-05-29T08:27:37.762Z,9.90
2018-05-29T08:28:37.937Z,10.10
2018-05-29T08:29:38.266Z,9.80
2018-05-29T08:30:38.323Z,9.70
2018-05-29T08:31:38.507Z,10.00
2018-05-29T08:32:38.678Z,9.60
2018-05-29T08:33:38.864Z,9.60
2018-05-29T08:34:39.042Z,10.40
2018-05-29T08:35:39.218Z,9.20
2018-05-29T08:36:39.407Z,12.20
2018-05-29T08:37:39.582Z,9.30
2018-05-29T08:38:39.752Z,9.30
2018-05-29T08:39:39.982Z,9.70
2018-05-29T08:40:40.113Z,9.60
2018-05-29T08:41:40.293Z,9.40
2018-05-29T08:42:40.461Z,10.60
2018-05-29T08:43:40.649Z,10.80
2018-05-29T08:44:40.819Z,9.00
2018-05-29T08:45:41.004Z,9.40
2018-05-29T08:46:41.177Z,9.80
2018-05-29T08:47:41.369Z,12.40
2018-05-29T08:48:41.546Z,9.70
2018-05-29T08:49:41.727Z,10.50
2018-05-29T08:50:41.918Z,9.10
2018-05-29T08:51:42.083Z,10.40
2018-05-29T08:52:42.264Z,9.40
2018-05-29T08:53:42.438Z,10.00
2018-05-29T08:54:42.610Z,10.50
2018-05-29T08:55:42.787Z,11.70
2018-05-29T08:56:42.980Z,9.80
2018-05-29T08:57:43.153Z,9.60
2018-05-29T08:58:43.333Z,14.40
2018-05-29T08:59:43.512Z,10.30
2018-05-29T09:00:43.722Z,10.10
2018-05-29T09:01:43.905Z,10.60
2018-05-29T09:02:44.092Z,9.70
2018-05-29T09:03:44.266Z,10.80
2018-05-29T09:04:44.450Z,13.30
2018-05-29T09:05:44.621Z,9.40
2018-05-29T09:06:44.799Z,9.90
2018-05-29T09:07:44.977Z,9.30
2018-05-29T09:08:45.163Z,10.40
2018-05-29T09:09:45.343Z,9.30
2018-05-29T09:10:45.524Z,10.90
2018-05-29T09:11:45.702Z,8.90
2018-05-29T09:12:45.896Z,12.40
2018-05-29T09:13:46.068Z,8.70
2018-05-29T09:14:46.252Z,12.20
2018-05-29T09:15:46.432Z,8.50
2018-05-29T09:16:46.621Z,11.10
2018-05-29T09:17:46.811Z,11.30
2018-05-29T09:18:46.985Z,8.80
2018-05-29T09:19:47.156Z,8.80
2018-05-29T09:20:47.350Z,7.80
2018-05-29T09:21:47.540Z,8.70
2018-05-29T09:22:47.733Z,7.80
2018-05-29T09:23:47.915Z,9.10
2018-05-29T09:24:48.098Z,9.40
2018-05-29T09:25:48.282Z,8.60
2018-05-29T09:26:48.464Z,8.10
2018-05-29T09:27:48.650Z,8.30
2018-05-29T09:28:48.835Z,7.00
2018-05-29T09:29:49.111Z,6.60
2018-05-29T09:30:49.210Z,7.80
2018-05-29T09:31:49.388Z,7.30
2018-05-29T09:32:49.575Z,6.90
2018-05-29T09:33:49.764Z,7.50
2018-05-29T09:34:49.955Z,7.10
2018-05-29T09:35:50.143Z,7.10
2018-05-29T09:36:50.331Z,7.10
2018-05-29T09:37:50.522Z,7.80
2018-05-29T09:38:50.725Z,7.50
2018-05-29T09:39:50.905Z,7.60
2018-05-29T09:40:51.095Z,7.00
2018-05-29T09:41:51.286Z,7.00
2018-05-29T09:42:51.472Z,8.10
2018-05-29T09:43:51.656Z,8.30
2018-05-29T09:44:51.842Z,7.00
2018-05-29T09:45:52.039Z,7.50
2018-05-29T09:46:52.215Z,8.80
2018-05-29T09:47:52.399Z,7.00
2018-05-29T09:48:52.588Z,7.70
2018-05-29T09:49:52.775Z,7.50
2018-05-29T09:50:52.958Z,8.80
2018-05-29T09:51:53.150Z,6.80
2018-05-29T09:52:53.373Z,7.20
2018-05-29T09:53:53.538Z,7.70
2018-05-29T09:54:53.722Z,7.90
2018-05-29T09:55:53.916Z,6.80
2018-05-29T09:56:54.111Z,6.70
2018-05-29T09:57:54.310Z,9.50
2018-05-29T09:58:54.488Z,7.50
2018-05-29T09:59:54.683Z,6.10
2018-05-29T10:00:54.877Z,6.10
2018-05-29T10:01:55.059Z,7.10
2018-05-29T10:02:55.255Z,6.70
2018-05-29T10:03:55.443Z,6.40
2018-05-29T10:04:55.634Z,9.80
2018-05-29T10:05:55.829Z,6.00
2018-05-29T10:06:56.124Z,6.20
2018-05-29T10:07:56.218Z,6.00
2018-05-29T10:08:56.447Z,8.60
2018-05-29T10:09:56.644Z,8.00
2018-05-29T10:10:56.823Z,6.00
2018-05-29T10:11:57.017Z,5.80
2018-05-29T10:12:57.199Z,8.20
2018-05-29T10:13:57.396Z,9.40
2018-05-29T10:14:57.584Z,5.90
2018-05-29T10:15:57.780Z,7.00
2018-05-29T10:16:57.987Z,9.70
2018-05-29T10:17:58.161Z,5.70
2018-05-29T10:18:58.370Z,6.60
2018-05-29T10:19:58.555Z,7.50
2018-05-29T10:20:58.750Z,6.20
2018-05-29T10:21:58.941Z,7.00
2018-05-29T10:22:59.148Z,6.70
2018-05-29T10:23:59.347Z,6.30
2018-05-29T10:24:59.541Z,6.50
2018-05-29T10:25:59.731Z,6.00
2018-05-29T10:26:59.924Z,8.20
2018-05-29T10:28:00.120Z,6.30
2018-05-29T10:29:00.308Z,6.10
2018-05-29T10:30:00.506Z,8.20
2018-05-29T10:31:00.748Z,5.80
2018-05-29T10:32:00.898Z,7.40
2018-05-29T10:33:01.091Z,5.70
2018-05-29T10:34:01.293Z,6.10
2018-05-29T10:35:01.495Z,6.00
2018-05-29T10:36:01.690Z,6.00
2018-05-29T10:37:01.879Z,6.20
2018-05-29T10:38:02.080Z,7.50
2018-05-29T10:39:02.283Z,6.50
2018-05-29T10:40:02.480Z,5.80
2018-05-29T10:41:02.681Z,7.50
2018-05-29T10:42:02.882Z,7.80
2018-05-29T10:43:03.079Z,5.80
2018-05-29T10:44:03.284Z,6.50
2018-05-29T10:45:03.482Z,6.30
2018-05-29T10:46:03.689Z,6.20
2018-05-29T10:47:03.878Z,6.30
2018-05-29T10:48:04.078Z,6.40
2018-05-29T10:49:04.285Z,5.90
2018-05-29T10:50:04.503Z,5.70
2018-05-29T10:51:04.667Z,5.60
2018-05-29T10:52:40.401Z,5.40
2018-05-29T10:54:38.176Z,4.80
2018-05-29T10:55:38.375Z,4.90
2018-05-29T10:56:38.573Z,6.50
2018-05-29T10:57:38.775Z,5.90
2018-05-29T10:59:52.099Z,6.00
2018-05-29T11:00:52.301Z,5.30
2018-05-29T11:01:52.499Z,5.10
2018-05-29T11:02:52.701Z,8.10
2018-05-29T11:03:52.903Z,5.40
2018-05-29T11:04:53.101Z,8.50
2018-05-29T11:05:53.305Z,6.00
2018-05-29T11:06:53.519Z,7.70
2018-05-29T11:07:53.705Z,5.50
2018-05-29T11:08:53.899Z,5.60
2018-05-29T11:09:54.102Z,9.20
2018-05-29T11:10:54.298Z,5.40
2018-05-29T11:11:54.491Z,5.60
2018-05-29T11:12:54.684Z,6.10
2018-05-29T11:13:54.886Z,7.30
2018-05-29T11:14:55.080Z,6.20
2018-05-29T11:15:55.278Z,6.80
2018-05-29T11:16:55.510Z,8.10
2018-05-29T11:17:55.673Z,5.60
2018-05-29T11:18:55.893Z,7.20
2018-05-29T11:19:56.097Z,5.80
2018-05-29T11:20:56.294Z,7.30
2018-05-29T11:21:56.507Z,6.60
2018-05-29T11:22:56.700Z,7.10
2018-05-29T11:23:56.895Z,7.30
2018-05-29T11:24:57.093Z,7.00
2018-05-29T11:25:57.292Z,5.90
2018-05-29T11:26:57.502Z,5.70
2018-05-29T11:27:57.704Z,6.60
2018-05-29T11:28:57.899Z,6.20
2018-05-29T11:29:58.123Z,6.60
2018-05-29T11:30:58.323Z,7.20
2018-05-29T11:31:58.511Z,6.80
2018-05-29T11:32:58.923Z,7.30
2018-05-29T11:33:58.896Z,6.20
2018-05-29T11:34:59.099Z,7.00
2018-05-29T11:35:59.289Z,6.10
2018-05-29T11:36:59.499Z,6.90
2018-05-29T11:38:00.539Z,6.20
2018-05-29T11:39:00.002Z,7.10
2018-05-29T11:40:00.144Z,5.80
2018-05-29T11:41:00.401Z,6.70
2018-05-29T11:42:00.634Z,5.70
2018-05-29T11:43:00.801Z,7.00
2018-05-29T11:44:00.985Z,5.90
2018-05-29T11:45:01.295Z,6.20
2018-05-29T11:46:01.409Z,6.40
2018-05-29T11:47:01.721Z,5.60
2018-05-29T11:48:01.913Z,6.60
2018-05-29T11:49:02.034Z,7.20
2018-05-29T11:50:02.233Z,7.90
2018-05-29T11:51:02.433Z,6.80
2018-05-29T11:52:02.637Z,5.90
2018-05-29T11:53:02.839Z,7.20
2018-05-29T11:54:03.232Z,6.10
2018-05-29T11:55:03.249Z,6.70
2018-05-29T11:56:03.678Z,6.50
2018-05-29T11:57:03.930Z,7.90
2018-05-29T11:58:04.108Z,8.20
2018-05-29T11:59:04.029Z,6.20
2018-05-29T12:00:04.197Z,5.90
2018-05-29T12:01:04.394Z,8.10
2018-05-29T12:02:04.660Z,5.80
2018-05-29T12:03:04.806Z,5.90
2018-05-29T12:04:05.016Z,5.60
2018-05-29T12:05:05.212Z,6.70
2018-05-29T12:06:05.412Z,6.10
2018-05-29T12:07:05.584Z,5.50
2018-05-29T12:08:05.944Z,6.30
2018-05-29T12:09:06.065Z,6.20
2018-05-29T12:10:06.191Z,7.70
2018-05-29T12:11:06.387Z,6.20
2018-05-29T12:12:06.579Z,6.30
2018-05-29T12:13:06.876Z,6.50
2018-05-29T12:14:07.024Z,6.20
2018-05-29T12:15:07.410Z,7.30
2018-05-29T12:16:07.651Z,5.50
2018-05-29T12:17:07.697Z,6.80
2018-05-29T12:18:08.083Z,6.20
2018-05-29T12:19:08.124Z,6.40
2018-05-29T12:20:08.359Z,5.90
2018-05-29T12:21:08.540Z,7.00
2018-05-29T12:22:08.998Z,6.80
2018-05-29T12:23:08.976Z,7.00
2018-05-29T12:24:09.209Z,7.90
2018-05-29T12:25:09.323Z,8.90
2018-05-29T12:26:09.735Z,7.50
2018-05-29T12:27:09.718Z,7.30
2018-05-29T12:28:09.974Z,6.50
2018-05-29T12:29:10.169Z,5.90
2018-05-29T12:30:10.273Z,6.00
2018-05-29T12:31:11.460Z,6.10
2018-05-29T12:34:59.054Z,6.20
2018-05-29T12:35:58.322Z,6.40
2018-05-29T12:36:58.357Z,6.70
2018-05-29T12:37:58.734Z,6.60
2018-05-29T12:38:58.619Z,8.30
2018-05-29T12:42:25.565Z,6.60
2018-05-29T12:43:10.381Z,8.10
2018-05-29T12:44:10.779Z,7.00
2018-05-29T12:45:11.242Z,6.70
2018-05-29T12:46:11.037Z,7.80
2018-05-29T12:47:11.211Z,8.70
2018-05-29T12:48:11.676Z,7.10
2018-05-29T12:49:11.676Z,6.40
2018-05-29T12:50:12.478Z,7.50
2018-05-29T12:51:12.217Z,8.50
2018-05-29T12:52:12.360Z,7.60
2018-05-29T12:53:12.770Z,9.10
2018-05-29T12:54:12.616Z,11.00
2018-05-29T12:55:13.254Z,16.60
2018-05-29T12:56:13.052Z,10.60
2018-05-29T12:57:13.301Z,11.10
2018-05-29T12:58:13.504Z,10.30
2018-05-29T12:59:13.651Z,13.60
2018-05-29T13:00:13.571Z,9.30
2018-05-29T13:01:14.027Z,17.00
2018-05-29T13:02:14.012Z,17.50
2018-05-29T13:03:14.025Z,10.80
2018-05-29T13:04:14.109Z,11.30
2018-05-29T13:05:14.320Z,13.90
2018-05-29T13:06:14.805Z,42.80
2018-05-29T13:07:15.090Z,82.10
2018-05-29T13:08:14.941Z,70.80
2018-05-29T13:09:15.081Z,116.10
2018-05-29T13:10:15.156Z,218.00
2018-05-29T13:11:15.990Z,282.60
2018-05-29T13:12:15.736Z,732.30
2018-05-29T13:13:15.789Z,225.10
2018-05-29T13:14:15.854Z,71.60
2018-05-29T13:15:16.253Z,104.50
2018-05-29T13:16:16.854Z,374.80
2018-05-29T13:17:16.544Z,172.80
2018-05-29T13:18:16.720Z,75.80
2018-05-29T13:19:17.013Z,22.00
2018-05-29T13:20:16.981Z,18.90
2018-05-29T13:21:17.761Z,17.90
2018-05-29T13:22:17.457Z,17.50
2018-05-29T13:23:17.608Z,15.80